Terminal Aerodrome Forecast
Issued by NWS

Home | Current Version | Previous Version | Graphics & Text | Print | Product List | Glossary On
Versions: 1 2 3 4 5 6 7 8 9 10 11 12 13
000
FTUS45 KGGW 231100
TAFSDY
TAF
KSDY 231134Z 2312/2412 VRB04KT P6SM SCT150
     FM231700 14014G22KT P6SM SCT250
     FM240300 13012G18KT P6SM SCT070 BKN250
     FM240800 13007KT P6SM BKN200
      AMD LTD TO CLD VIS AND WIND=

USA.gov is the U.S. government's official web portal to all federal, state and local government web resources and services.